CMB844 Details

Departure: Paya Lebar Airport (WSAP)
Arrival: Diego Garcia (FJDG) at N/A
Route: ASUNA R469 PKU N633 PIBED R212 GUDUG
Notes: USTRANSCOM CONTRACT FLIGHT


Current Weather Information
WSAP 171600Z 14006KT 9999 FEW018 BKN300 28/24 Q1011
FJDG 171555Z 08004KT 9999 FEW017 SCT120 BKN250 28/26 A2985 RMK SLP105 T02840263